sensor_id;sensor_type;location;lat;lon;timestamp;pressure;altitude;pressure_sealevel;temperature;humidity
59767;BME280;46248;58.364;25.582;2023-02-20T00:03:13;99364.91;;;-3.47;99.66
59767;BME280;46248;58.364;25.582;2023-02-20T00:06:36;99358.06;;;-3.48;99.84
59767;BME280;46248;58.364;25.582;2023-02-20T00:09:58;99366.56;;;-3.46;100.00
59767;BME280;46248;58.364;25.582;2023-02-20T00:13:20;99359.06;;;-3.57;100.00
59767;BME280;46248;58.364;25.582;2023-02-20T00:16:46;99371.72;;;-3.49;99.64
59767;BME280;46248;58.364;25.582;2023-02-20T00:20:09;99376.84;;;-3.49;99.88
59767;BME280;46248;58.364;25.582;2023-02-20T00:23:32;99384.56;;;-3.52;99.90
59767;BME280;46248;58.364;25.582;2023-02-20T00:26:53;99389.66;;;-3.49;100.00
59767;BME280;46248;58.364;25.582;2023-02-20T00:30:17;99401.63;;;-3.54;99.40
59767;BME280;46248;58.364;25.582;2023-02-20T00:33:40;99396.53;;;-3.54;99.90
59767;BME280;46248;58.364;25.582;2023-02-20T00:37:02;99394.00;;;-3.56;99.15
59767;BME280;46248;58.364;25.582;2023-02-20T00:40:25;99412.75;;;-3.54;99.64
59767;BME280;46248;58.364;25.582;2023-02-20T00:43:47;99411.06;;;-3.58;99.53
59767;BME280;46248;58.364;25.582;2023-02-20T00:47:09;99412.78;;;-3.57;99.33
59767;BME280;46248;58.364;25.582;2023-02-20T00:50:32;99406.88;;;-3.63;98.68
59767;BME280;46248;58.364;25.582;2023-02-20T00:53:55;99406.88;;;-3.63;98.93
59767;BME280;46248;58.364;25.582;2023-02-20T00:57:17;99407.75;;;-3.63;98.96
59767;BME280;46248;58.364;25.582;2023-02-20T01:00:38;99407.78;;;-3.67;98.24
59767;BME280;46248;58.364;25.582;2023-02-20T01:04:00;99404.34;;;-3.66;98.43
59767;BME280;46248;58.364;25.582;2023-02-20T01:07:24;99409.50;;;-3.68;98.81
59767;BME280;46248;58.364;25.582;2023-02-20T01:10:46;99402.66;;;-3.67;98.58
59767;BME280;46248;58.364;25.582;2023-02-20T01:14:08;99407.81;;;-3.69;98.72
59767;BME280;46248;58.364;25.582;2023-02-20T01:17:30;99406.13;;;-3.72;99.23
59767;BME280;46248;58.364;25.582;2023-02-20T01:20:52;99410.38;;;-3.71;98.95
59767;BME280;46248;58.364;25.582;2023-02-20T01:24:16;99413.81;;;-3.73;98.20
59767;BME280;46248;58.364;25.582;2023-02-20T01:27:39;99409.53;;;-3.73;98.82
59767;BME280;46248;58.364;25.582;2023-02-20T01:31:01;99426.59;;;-3.73;98.67
59767;BME280;46248;58.364;25.582;2023-02-20T01:34:23;99415.53;;;-3.74;98.63
59767;BME280;46248;58.364;25.582;2023-02-20T01:37:45;99403.72;;;-3.84;98.49
59767;BME280;46248;58.364;25.582;2023-02-20T01:41:10;99421.50;;;-3.76;98.64
59767;BME280;46248;58.364;25.582;2023-02-20T01:44:35;99413.03;;;-3.81;98.57
59767;BME280;46248;58.364;25.582;2023-02-20T01:47:57;99411.31;;;-3.78;98.34
59767;BME280;46248;58.364;25.582;2023-02-20T01:51:19;99418.13;;;-3.78;98.43
59767;BME280;46248;58.364;25.582;2023-02-20T01:54:43;99416.44;;;-3.79;98.43
59767;BME280;46248;58.364;25.582;2023-02-20T01:58:13;99421.53;;;-3.79;98.47
59767;BME280;46248;58.364;25.582;2023-02-20T02:01:37;99426.66;;;-3.79;98.91
59767;BME280;46248;58.364;25.582;2023-02-20T02:04:59;99424.13;;;-3.81;99.05
59767;BME280;46248;58.364;25.582;2023-02-20T02:08:22;99421.56;;;-3.81;99.29
59767;BME280;46248;58.364;25.582;2023-02-20T02:11:48;99414.78;;;-3.83;98.52
59767;BME280;46248;58.364;25.582;2023-02-20T02:15:14;99419.06;;;-3.84;98.98
59767;BME280;46248;58.364;25.582;2023-02-20T02:18:49;99419.88;;;-3.82;98.75
59767;BME280;46248;58.364;25.582;2023-02-20T02:26:16;99406.28;;;-3.88;99.08
59767;BME280;46248;58.364;25.582;2023-02-20T02:37:26;99417.44;;;-3.94;99.75
59767;BME280;46248;58.364;25.582;2023-02-20T02:40:56;99441.16;;;-3.81;99.97
59767;BME280;46248;58.364;25.582;2023-02-20T02:44:29;99439.47;;;-3.82;99.88
59767;BME280;46248;58.364;25.582;2023-02-20T02:47:58;99425.00;;;-3.85;99.69
59767;BME280;46248;58.364;25.582;2023-02-20T02:51:25;99430.16;;;-3.88;99.86
59767;BME280;46248;58.364;25.582;2023-02-20T02:54:49;99450.56;;;-3.82;99.81
59767;BME280;46248;58.364;25.582;2023-02-20T02:58:12;99454.81;;;-3.82;100.00
59767;BME280;46248;58.364;25.582;2023-02-20T03:01:40;99432.69;;;-3.83;100.00
59767;BME280;46248;58.364;25.582;2023-02-20T03:05:05;99430.13;;;-3.85;100.00
59767;BME280;46248;58.364;25.582;2023-02-20T03:08:32;99426.69;;;-3.82;100.00
59767;BME280;46248;58.364;25.582;2023-02-20T03:12:00;99435.22;;;-3.80;100.00
59767;BME280;46248;58.364;25.582;2023-02-20T03:15:27;99421.66;;;-3.87;99.95
59767;BME280;46248;58.364;25.582;2023-02-20T03:18:55;99404.63;;;-3.91;100.00
59767;BME280;46248;58.364;25.582;2023-02-20T03:22:24;99409.63;;;-3.80;100.00
59767;BME280;46248;58.364;25.582;2023-02-20T03:25:50;99411.34;;;-3.81;100.00
59767;BME280;46248;58.364;25.582;2023-02-20T03:29:19;99417.28;;;-3.79;100.00
59767;BME280;46248;58.364;25.582;2023-02-20T03:32:52;99414.78;;;-3.85;99.96
59767;BME280;46248;58.364;25.582;2023-02-20T03:36:36;99425.81;;;-3.80;100.00
59767;BME280;46248;58.364;25.582;2023-02-20T03:40:20;99405.44;;;-3.87;100.00
59767;BME280;46248;58.364;25.582;2023-02-20T03:44:03;99426.69;;;-3.81;100.00
59767;BME280;46248;58.364;25.582;2023-02-20T03:47:29;99429.19;;;-3.76;100.00
59767;BME280;46248;58.364;25.582;2023-02-20T03:50:55;99410.41;;;-3.74;100.00
59767;BME280;46248;58.364;25.582;2023-02-20T03:54:35;99412.09;;;-3.73;100.00
59767;BME280;46248;58.364;25.582;2023-02-20T03:58:00;99412.09;;;-3.73;100.00
59767;BME280;46248;58.364;25.582;2023-02-20T04:01:25;99422.28;;;-3.68;100.00
59767;BME280;46248;58.364;25.582;2023-02-20T04:04:52;99429.06;;;-3.64;100.00
59767;BME280;46248;58.364;25.582;2023-02-20T04:08:17;99435.88;;;-3.64;100.00
59767;BME280;46248;58.364;25.582;2023-02-20T04:11:43;99444.41;;;-3.64;100.00
59767;BME280;46248;58.364;25.582;2023-02-20T04:15:08;99441.06;;;-3.69;100.00
59767;BME280;46248;58.364;25.582;2023-02-20T04:18:31;99434.22;;;-3.69;100.00
59767;BME280;46248;58.364;25.582;2023-02-20T04:21:57;99422.31;;;-3.73;100.00
59767;BME280;46248;58.364;25.582;2023-02-20T04:25:28;99441.88;;;-3.67;100.00
59767;BME280;46248;58.364;25.582;2023-02-20T04:28:53;99436.78;;;-3.69;100.00
59767;BME280;46248;58.364;25.582;2023-02-20T04:32:15;99441.88;;;-3.67;100.00
59767;BME280;46248;58.364;25.582;2023-02-20T04:35:37;99429.16;;;-3.73;100.00
59767;BME280;46248;58.364;25.582;2023-02-20T04:39:00;99427.38;;;-3.65;100.00
59767;BME280;46248;58.364;25.582;2023-02-20T04:42:22;99385.78;;;-3.81;100.00
59767;BME280;46248;58.364;25.582;2023-02-20T04:45:44;99426.47;;;-3.61;100.00
59767;BME280;46248;58.364;25.582;2023-02-20T04:49:06;99400.88;;;-3.61;100.00
59767;BME280;46248;58.364;25.582;2023-02-20T04:52:27;99408.50;;;-3.58;100.00
59767;BME280;46248;58.364;25.582;2023-02-20T04:55:51;99393.31;;;-3.70;100.00
59767;BME280;46248;58.364;25.582;2023-02-20T04:59:13;99397.44;;;-3.58;100.00
59767;BME280;46248;58.364;25.582;2023-02-20T05:02:37;99390.63;;;-3.61;100.00
59767;BME280;46248;58.364;25.582;2023-02-20T05:05:59;99379.53;;;-3.57;100.00
59767;BME280;46248;58.364;25.582;2023-02-20T05:09:21;99379.59;;;-3.63;100.00
59767;BME280;46248;58.364;25.582;2023-02-20T05:12:44;99393.97;;;-3.54;100.00
59767;BME280;46248;58.364;25.582;2023-02-20T05:16:07;99389.75;;;-3.57;100.00
59767;BME280;46248;58.364;25.582;2023-02-20T05:19:29;99397.41;;;-3.54;100.00
59767;BME280;46248;58.364;25.582;2023-02-20T05:22:51;99376.16;;;-3.63;100.00
59767;BME280;46248;58.364;25.582;2023-02-20T05:26:16;99369.31;;;-3.60;100.00
59767;BME280;46248;58.364;25.582;2023-02-20T05:29:43;99395.59;;;-3.49;100.00
59767;BME280;46248;58.364;25.582;2023-02-20T05:33:05;99374.28;;;-3.48;100.00
59767;BME280;46248;58.364;25.582;2023-02-20T05:36:27;99358.94;;;-3.49;100.00
59767;BME280;46248;58.364;25.582;2023-02-20T05:39:49;99372.41;;;-3.35;100.00
59767;BME280;46248;58.364;25.582;2023-02-20T05:43:11;99365.56;;;-3.33;100.00
59767;BME280;46248;58.364;25.582;2023-02-20T05:46:38;99350.34;;;-3.43;100.00
59767;BME280;46248;58.364;25.582;2023-02-20T05:50:01;99368.94;;;-3.29;100.00
59767;BME280;46248;58.364;25.582;2023-02-20T05:53:26;99373.16;;;-3.27;100.00
59767;BME280;46248;58.364;25.582;2023-02-20T05:56:48;99369.69;;;-3.23;100.00
59767;BME280;46248;58.364;25.582;2023-02-20T06:00:11;99375.63;;;-3.20;100.00
59767;BME280;46248;58.364;25.582;2023-02-20T06:03:35;99376.44;;;-3.17;100.00
59767;BME280;46248;58.364;25.582;2023-02-20T06:06:57;99378.13;;;-3.16;100.00
59767;BME280;46248;58.364;25.582;2023-02-20T06:10:20;99365.31;;;-3.16;100.00
59767;BME280;46248;58.364;25.582;2023-02-20T06:13:43;99344.75;;;-3.10;100.00
59767;BME280;46248;58.364;25.582;2023-02-20T06:17:05;99346.28;;;-2.98;100.00
59767;BME280;46248;58.364;25.582;2023-02-20T06:20:28;99325.84;;;-3.01;100.00
59767;BME280;46248;58.364;25.582;2023-02-20T06:23:52;99332.34;;;-2.80;100.00
59767;BME280;46248;58.364;25.582;2023-02-20T06:27:15;99303.50;;;-2.91;100.00
59767;BME280;46248;58.364;25.582;2023-02-20T06:30:37;99326.19;;;-2.68;100.00
59767;BME280;46248;58.364;25.582;2023-02-20T06:33:59;99308.31;;;-2.73;100.00
59767;BME280;46248;58.364;25.582;2023-02-20T06:37:22;99303.88;;;-2.63;100.00
59767;BME280;46248;58.364;25.582;2023-02-20T06:40:44;99312.97;;;-2.45;100.00
59767;BME280;46248;58.364;25.582;2023-02-20T06:44:07;99306.88;;;-2.38;100.00
59767;BME280;46248;58.364;25.582;2023-02-20T06:47:29;99305.03;;;-2.33;100.00
59767;BME280;46248;58.364;25.582;2023-02-20T06:50:51;99299.84;;;-2.28;100.00
59767;BME280;46248;58.364;25.582;2023-02-20T06:54:17;99303.13;;;-2.22;100.00
59767;BME280;46248;58.364;25.582;2023-02-20T06:57:41;99299.53;;;-2.12;100.00
59767;BME280;46248;58.364;25.582;2023-02-20T07:01:03;99270.34;;;-2.06;100.00
59767;BME280;46248;58.364;25.582;2023-02-20T07:04:25;99270.91;;;-1.92;100.00
59767;BME280;46248;58.364;25.582;2023-02-20T07:07:47;99253.66;;;-1.85;100.00
59767;BME280;46248;58.364;25.582;2023-02-20T07:11:11;99260.19;;;-1.70;100.00
59767;BME280;46248;58.364;25.582;2023-02-20T07:14:33;99245.56;;;-1.67;100.00
59767;BME280;46248;58.364;25.582;2023-02-20T07:17:55;99245.34;;;-1.56;100.00
59767;BME280;46248;58.364;25.582;2023-02-20T07:21:17;99240.06;;;-1.50;100.00
59767;BME280;46248;58.364;25.582;2023-02-20T07:24:39;99235.81;;;-1.51;100.00
59767;BME280;46248;58.364;25.582;2023-02-20T07:28:03;99240.06;;;-1.50;100.00
59767;BME280;46248;58.364;25.582;2023-02-20T07:31:27;99236.63;;;-1.49;100.00
59767;BME280;46248;58.364;25.582;2023-02-20T07:34:49;99241.72;;;-1.47;100.00
59767;BME280;46248;58.364;25.582;2023-02-20T07:38:23;99225.50;;;-1.48;100.00
59767;BME280;46248;58.364;25.582;2023-02-20T07:41:45;99230.56;;;-1.45;100.00
59767;BME280;46248;58.364;25.582;2023-02-20T07:45:09;99226.06;;;-1.36;100.00
59767;BME280;46248;58.364;25.582;2023-02-20T07:48:31;99218.22;;;-1.30;100.00
59767;BME280;46248;58.364;25.582;2023-02-20T07:51:53;99206.94;;;-1.23;100.00
59767;BME280;46248;58.364;25.582;2023-02-20T07:55:16;99227.19;;;-1.12;100.00
59767;BME280;46248;58.364;25.582;2023-02-20T07:58:38;99214.19;;;-1.05;100.00
59767;BME280;46248;58.364;25.582;2023-02-20T08:02:02;99209.88;;;-1.04;99.70
59767;BME280;46248;58.364;25.582;2023-02-20T08:05:24;99209.88;;;-1.04;99.03
59767;BME280;46248;58.364;25.582;2023-02-20T08:08:49;99202.94;;;-1.01;99.64
59767;BME280;46248;58.364;25.582;2023-02-20T08:12:11;99189.91;;;-0.93;99.38
59767;BME280;46248;58.364;25.582;2023-02-20T08:15:37;99182.81;;;-0.85;99.20
59767;BME280;46248;58.364;25.582;2023-02-20T08:19:00;99169.78;;;-0.77;99.86
59767;BME280;46248;58.364;25.582;2023-02-20T08:22:22;99160.16;;;-0.69;99.36
59767;BME280;46248;58.364;25.582;2023-02-20T08:26:02;99153.09;;;-0.62;98.91
59767;BME280;46248;58.364;25.582;2023-02-20T08:29:24;99141.91;;;-0.60;98.77
59767;BME280;46248;58.364;25.582;2023-02-20T08:32:45;99128.97;;;-0.57;98.15
59767;BME280;46248;58.364;25.582;2023-02-20T08:36:09;99115.13;;;-0.53;97.95
59767;BME280;46248;58.364;25.582;2023-02-20T08:39:31;99089.56;;;-0.57;98.45
59767;BME280;46248;58.364;25.582;2023-02-20T08:42:53;99097.75;;;-0.44;98.00
59767;BME280;46248;58.364;25.582;2023-02-20T08:46:15;99098.44;;;-0.39;98.45
59767;BME280;46248;58.364;25.582;2023-02-20T08:49:37;99089.06;;;-0.40;97.92
59767;BME280;46248;58.364;25.582;2023-02-20T08:53:00;99087.28;;;-0.38;98.49
59767;BME280;46248;58.364;25.582;2023-02-20T08:56:22;99082.06;;;-0.35;99.18
59767;BME280;46248;58.364;25.582;2023-02-20T08:59:44;99068.34;;;-0.36;97.93
59767;BME280;46248;58.364;25.582;2023-02-20T09:03:06;99065.63;;;-0.31;98.95
59767;BME280;46248;58.364;25.582;2023-02-20T09:06:28;99068.94;;;-0.28;98.49
59767;BME280;46248;58.364;25.582;2023-02-20T09:09:51;99067.91;;;-0.22;98.38
59767;BME280;46248;58.364;25.582;2023-02-20T09:13:13;99040.38;;;-0.18;99.12
59767;BME280;46248;58.364;25.582;2023-02-20T09:16:35;99040.03;;;-0.08;98.41
59767;BME280;46248;58.364;25.582;2023-02-20T09:20:01;99038.13;;;-0.01;98.33
59767;BME280;46248;58.364;25.582;2023-02-20T09:23:23;99027.69;;;0.04;98.58
59767;BME280;46248;58.364;25.582;2023-02-20T09:26:48;99036.84;;;0.12;98.24
59767;BME280;46248;58.364;25.582;2023-02-20T09:30:14;99034.16;;;0.15;97.55
59767;BME280;46248;58.364;25.582;2023-02-20T09:33:37;99019.66;;;0.13;97.43
59767;BME280;46248;58.364;25.582;2023-02-20T09:36:58;99016.00;;;0.20;98.40
59767;BME280;46248;58.364;25.582;2023-02-20T09:40:22;99002.88;;;0.28;98.25
59767;BME280;46248;58.364;25.582;2023-02-20T09:43:50;98988.78;;;0.38;98.31
59767;BME280;46248;58.364;25.582;2023-02-20T09:47:32;98962.34;;;0.33;97.13
59767;BME280;46248;58.364;25.582;2023-02-20T09:50:58;98991.44;;;0.60;98.01
59767;BME280;46248;58.364;25.582;2023-02-20T09:54:26;98980.59;;;0.75;97.42
59767;BME280;46248;58.364;25.582;2023-02-20T09:57:52;98977.75;;;0.83;97.08
59767;BME280;46248;58.364;25.582;2023-02-20T10:01:19;98963.25;;;0.80;96.01
59767;BME280;46248;58.364;25.582;2023-02-20T10:04:44;98934.91;;;0.57;95.58
59767;BME280;46248;58.364;25.582;2023-02-20T10:08:21;98957.53;;;0.72;95.85
59767;BME280;46248;58.364;25.582;2023-02-20T10:11:57;98945.78;;;0.65;96.57
59767;BME280;46248;58.364;25.582;2023-02-20T10:15:24;98945.69;;;0.66;97.04
59767;BME280;46248;58.364;25.582;2023-02-20T10:18:55;98915.13;;;0.57;96.77
59767;BME280;46248;58.364;25.582;2023-02-20T10:22:23;98922.53;;;0.66;97.45
59767;BME280;46248;58.364;25.582;2023-02-20T10:25:49;98918.84;;;0.74;97.34
59767;BME280;46248;58.364;25.582;2023-02-20T10:29:15;98907.72;;;0.73;96.02
59767;BME280;46248;58.364;25.582;2023-02-20T10:32:41;98894.03;;;0.71;96.83
59767;BME280;46248;58.364;25.582;2023-02-20T10:36:11;98885.28;;;0.75;96.08
59767;BME280;46248;58.364;25.582;2023-02-20T10:39:35;98877.41;;;0.80;95.85
59767;BME280;46248;58.364;25.582;2023-02-20T10:43:03;98862.09;;;0.75;94.24
59767;BME280;46248;58.364;25.582;2023-02-20T10:46:30;98856.81;;;0.78;95.58
59767;BME280;46248;58.364;25.582;2023-02-20T10:50:13;98859.16;;;0.84;95.19
59767;BME280;46248;58.364;25.582;2023-02-20T10:53:44;98852.22;;;0.86;95.16
59767;BME280;46248;58.364;25.582;2023-02-20T10:57:12;98839.22;;;0.89;95.68
59767;BME280;46248;58.364;25.582;2023-02-20T11:00:38;98832.28;;;0.91;95.39
59767;BME280;46248;58.364;25.582;2023-02-20T11:04:03;98832.88;;;0.98;94.79
59767;BME280;46248;58.364;25.582;2023-02-20T11:07:27;98829.34;;;1.01;94.09
59767;BME280;46248;58.364;25.582;2023-02-20T11:10:55;98825.03;;;1.01;93.68
59767;BME280;46248;58.364;25.582;2023-02-20T11:14:20;98822.31;;;1.04;94.15
59767;BME280;46248;58.364;25.582;2023-02-20T11:17:59;98808.59;;;1.04;93.90
59767;BME280;46248;58.364;25.582;2023-02-20T11:21:33;98801.94;;;0.98;92.86
59767;BME280;46248;58.364;25.582;2023-02-20T11:25:13;98791.56;;;1.00;92.80
59767;BME280;46248;58.364;25.582;2023-02-20T11:28:37;98775.41;;;0.96;91.78
59767;BME280;46248;58.364;25.582;2023-02-20T11:32:21;98758.25;;;0.95;92.39
59767;BME280;46248;58.364;25.582;2023-02-20T11:35:44;98724.34;;;0.84;93.44
59767;BME280;46248;58.364;25.582;2023-02-20T11:39:18;98750.09;;;1.06;93.15
59767;BME280;46248;58.364;25.582;2023-02-20T11:42:41;98734.88;;;1.00;92.34
59767;BME280;46248;58.364;25.582;2023-02-20T11:46:09;98723.16;;;0.93;91.68
59767;BME280;46248;58.364;25.582;2023-02-20T11:49:31;98714.75;;;0.87;92.42
59767;BME280;46248;58.364;25.582;2023-02-20T11:52:58;98689.78;;;0.89;93.37
59767;BME280;46248;58.364;25.582;2023-02-20T11:56:22;98669.94;;;0.91;91.65
59767;BME280;46248;58.364;25.582;2023-02-20T11:59:44;98664.72;;;0.93;90.24
59767;BME280;46248;58.364;25.582;2023-02-20T12:03:12;98657.09;;;0.90;88.88
59767;BME280;46248;58.364;25.582;2023-02-20T12:06:40;98641.06;;;0.83;89.59
59767;BME280;46248;58.364;25.582;2023-02-20T12:13:47;98617.63;;;0.89;89.39
59767;BME280;46248;58.364;25.582;2023-02-20T12:17:13;98606.50;;;0.89;89.62
59767;BME280;46248;58.364;25.582;2023-02-20T12:20:48;98589.28;;;0.89;90.11
59767;BME280;46248;58.364;25.582;2023-02-20T12:24:29;98574.78;;;0.87;89.22
59767;BME280;46248;58.364;25.582;2023-02-20T12:27:59;98564.63;;;0.84;89.96
59767;BME280;46248;58.364;25.582;2023-02-20T12:31:34;98539.81;;;0.81;91.15
59767;BME280;46248;58.364;25.582;2023-02-20T12:35:21;98537.88;;;0.86;91.35
59767;BME280;46248;58.364;25.582;2023-02-20T12:38:48;98518.25;;;0.84;90.25
59767;BME280;46248;58.364;25.582;2023-02-20T12:42:18;98502.09;;;0.80;90.29
59767;BME280;46248;58.364;25.582;2023-02-20T12:45:51;98496.38;;;0.74;89.63
59767;BME280;46248;58.364;25.582;2023-02-20T12:49:35;98487.03;;;0.71;89.89
59767;BME280;46248;58.364;25.582;2023-02-20T12:53:19;98475.34;;;0.64;89.37
59767;BME280;46248;58.364;25.582;2023-02-20T12:57:05;98461.69;;;0.62;89.23
59767;BME280;46248;58.364;25.582;2023-02-20T13:00:32;98449.72;;;0.61;90.27
59767;BME280;46248;58.364;25.582;2023-02-20T13:03:59;98430.34;;;0.52;89.00
59767;BME280;46248;58.364;25.582;2023-02-20T13:07:27;98415.03;;;0.49;88.77
59767;BME280;46248;58.364;25.582;2023-02-20T13:10:54;98406.75;;;0.42;88.69
59767;BME280;46248;58.364;25.582;2023-02-20T13:14:30;98399.06;;;0.41;90.16
59767;BME280;46248;58.364;25.582;2023-02-20T13:18:05;98381.75;;;0.44;90.63
59767;BME280;46248;58.364;25.582;2023-02-20T13:21:31;98372.22;;;0.47;90.14
59767;BME280;46248;58.364;25.582;2023-02-20T13:24:53;98351.06;;;0.40;89.92
59767;BME280;46248;58.364;25.582;2023-02-20T13:28:35;98353.66;;;0.40;89.42
59767;BME280;46248;58.364;25.582;2023-02-20T13:32:23;98335.03;;;0.33;89.37
59767;BME280;46248;58.364;25.582;2023-02-20T13:35:49;98325.16;;;0.24;89.21
59767;BME280;46248;58.364;25.582;2023-02-20T13:43:28;98296.13;;;0.02;89.82
59767;BME280;46248;58.364;25.582;2023-02-20T13:46:57;98289.34;;;0.01;90.69
59767;BME280;46248;58.364;25.582;2023-02-20T13:50:32;98277.84;;;-0.11;90.33
59767;BME280;46248;58.364;25.582;2023-02-20T13:53:58;98276.16;;;-0.12;91.17
59767;BME280;46248;58.364;25.582;2023-02-20T13:57:23;98265.31;;;-0.19;90.33
59767;BME280;46248;58.364;25.582;2023-02-20T14:00:51;98255.50;;;-0.30;91.02
59767;BME280;46248;58.364;25.582;2023-02-20T14:04:19;98248.09;;;-0.37;91.86
59767;BME280;46248;58.364;25.582;2023-02-20T14:07:45;98246.56;;;-0.41;91.43
59767;BME280;46248;58.364;25.582;2023-02-20T14:11:09;98236.28;;;-0.41;92.59
59767;BME280;46248;58.364;25.582;2023-02-20T14:14:37;98227.78;;;-0.43;92.40
59767;BME280;46248;58.364;25.582;2023-02-20T14:18:02;98212.38;;;-0.43;93.77
59767;BME280;46248;58.364;25.582;2023-02-20T14:21:24;98197.91;;;-0.46;93.24
59767;BME280;46248;58.364;25.582;2023-02-20T14:25:00;98185.13;;;-0.48;92.20
59767;BME280;46248;58.364;25.582;2023-02-20T14:28:22;98176.72;;;-0.51;92.30
59767;BME280;46248;58.364;25.582;2023-02-20T14:31:48;98175.31;;;-0.58;93.46
59767;BME280;46248;58.364;25.582;2023-02-20T14:35:24;98172.69;;;-0.57;94.06
59767;BME280;46248;58.364;25.582;2023-02-20T14:39:02;98153.28;;;-0.64;93.21
59767;BME280;46248;58.364;25.582;2023-02-20T14:42:31;98140.66;;;-0.68;93.58
59767;BME280;46248;58.364;25.582;2023-02-20T14:45:59;98139.00;;;-0.70;94.04
59767;BME280;46248;58.364;25.582;2023-02-20T14:49:24;98129.66;;;-0.72;93.91
59767;BME280;46248;58.364;25.582;2023-02-20T14:52:46;98116.00;;;-0.73;94.35
59767;BME280;46248;58.364;25.582;2023-02-20T14:56:14;98087.28;;;-0.82;94.64
59767;BME280;46248;58.364;25.582;2023-02-20T14:59:38;98089.53;;;-0.75;94.75
59767;BME280;46248;58.364;25.582;2023-02-20T15:03:07;98068.53;;;-0.84;96.05
59767;BME280;46248;58.364;25.582;2023-02-20T15:06:49;98063.31;;;-0.83;95.45
59767;BME280;46248;58.364;25.582;2023-02-20T15:10:34;98043.88;;;-0.88;96.74
59767;BME280;46248;58.364;25.582;2023-02-20T15:13:57;98037.06;;;-0.89;96.82
59767;BME280;46248;58.364;25.582;2023-02-20T15:17:23;98030.19;;;-0.89;97.20
59767;BME280;46248;58.364;25.582;2023-02-20T15:20:46;98013.47;;;-0.98;97.82
59767;BME280;46248;58.364;25.582;2023-02-20T15:24:34;98009.22;;;-0.99;97.99
59767;BME280;46248;58.364;25.582;2023-02-20T15:28:05;97991.66;;;-1.08;98.42
59767;BME280;46248;58.364;25.582;2023-02-20T15:31:27;97974.25;;;-1.20;98.66
59767;BME280;46248;58.364;25.582;2023-02-20T15:34:55;97993.41;;;-1.08;99.16
59767;BME280;46248;58.364;25.582;2023-02-20T15:38:17;97979.78;;;-1.10;99.28
59767;BME280;46248;58.364;25.582;2023-02-20T15:41:39;97963.84;;;-1.17;99.66
59767;BME280;46248;58.364;25.582;2023-02-20T15:45:01;97950.34;;;-1.22;99.56
59767;BME280;46248;58.364;25.582;2023-02-20T15:48:24;97958.69;;;-1.17;100.00
59767;BME280;46248;58.364;25.582;2023-02-20T15:51:48;97936.75;;;-1.24;99.98
59767;BME280;46248;58.364;25.582;2023-02-20T15:55:19;97930.78;;;-1.25;99.58
59767;BME280;46248;58.364;25.582;2023-02-20T15:58:44;97931.84;;;-1.29;99.95
59767;BME280;46248;58.364;25.582;2023-02-20T16:02:12;97929.25;;;-1.29;99.93
59767;BME280;46248;58.364;25.582;2023-02-20T16:05:34;97916.56;;;-1.32;100.00
59767;BME280;46248;58.364;25.582;2023-02-20T16:08:58;97904.00;;;-1.38;99.58
59767;BME280;46248;58.364;25.582;2023-02-20T16:12:24;97880.53;;;-1.49;100.00
59767;BME280;46248;58.364;25.582;2023-02-20T16:15:48;97872.44;;;-1.59;99.47
59767;BME280;46248;58.364;25.582;2023-02-20T16:19:13;97873.53;;;-1.65;100.00
59767;BME280;46248;58.364;25.582;2023-02-20T16:22:35;97858.63;;;-1.75;100.00
59767;BME280;46248;58.364;25.582;2023-02-20T16:25:59;97839.53;;;-1.89;100.00
59767;BME280;46248;58.364;25.582;2023-02-20T16:29:25;97845.22;;;-1.82;100.00
59767;BME280;46248;58.364;25.582;2023-02-20T16:32:48;97840.44;;;-1.90;100.00
59767;BME280;46248;58.364;25.582;2023-02-20T16:36:11;97829.53;;;-1.95;100.00
59767;BME280;46248;58.364;25.582;2023-02-20T16:39:44;97817.69;;;-1.97;100.00
59767;BME280;46248;58.364;25.582;2023-02-20T16:43:10;97777.53;;;-2.17;100.00
59767;BME280;46248;58.364;25.582;2023-02-20T16:46:33;97795.00;;;-2.07;100.00
59767;BME280;46248;58.364;25.582;2023-02-20T16:49:58;97795.91;;;-2.08;100.00
59767;BME280;46248;58.364;25.582;2023-02-20T16:53:24;97789.06;;;-2.07;100.00
59767;BME280;46248;58.364;25.582;2023-02-20T16:56:51;97772.97;;;-2.11;100.00
59767;BME280;46248;58.364;25.582;2023-02-20T17:00:16;97761.81;;;-2.10;100.00
59767;BME280;46248;58.364;25.582;2023-02-20T17:03:39;97754.13;;;-2.10;100.00
59767;BME280;46248;58.364;25.582;2023-02-20T17:07:00;97749.06;;;-2.11;100.00
59767;BME280;46248;58.364;25.582;2023-02-20T17:10:23;97745.81;;;-2.15;100.00
59767;BME280;46248;58.364;25.582;2023-02-20T17:13:46;97735.47;;;-2.13;100.00
59767;BME280;46248;58.364;25.582;2023-02-20T17:17:09;97710.22;;;-2.21;100.00
59767;BME280;46248;58.364;25.582;2023-02-20T17:20:31;97713.38;;;-2.16;100.00
59767;BME280;46248;58.364;25.582;2023-02-20T17:23:53;97689.22;;;-2.29;100.00
59767;BME280;46248;58.364;25.582;2023-02-20T17:27:16;97705.91;;;-2.20;100.00
59767;BME280;46248;58.364;25.582;2023-02-20T17:30:38;97697.59;;;-2.25;100.00
59767;BME280;46248;58.364;25.582;2023-02-20T17:34:02;97652.47;;;-2.48;100.00
59767;BME280;46248;58.364;25.582;2023-02-20T17:37:25;97686.50;;;-2.26;100.00
59767;BME280;46248;58.364;25.582;2023-02-20T17:40:50;97679.66;;;-2.25;100.00
59767;BME280;46248;58.364;25.582;2023-02-20T17:44:15;97673.75;;;-2.27;100.00
59767;BME280;46248;58.364;25.582;2023-02-20T17:47:38;97670.44;;;-2.29;100.00
59767;BME280;46248;58.364;25.582;2023-02-20T17:51:01;97635.94;;;-2.41;100.00
59767;BME280;46248;58.364;25.582;2023-02-20T17:54:24;97648.25;;;-2.31;100.00
59767;BME280;46248;58.364;25.582;2023-02-20T17:57:47;97644.19;;;-2.35;100.00
59767;BME280;46248;58.364;25.582;2023-02-20T18:01:09;97644.94;;;-2.33;100.00
59767;BME280;46248;58.364;25.582;2023-02-20T18:04:31;97643.34;;;-2.35;100.00
59767;BME280;46248;58.364;25.582;2023-02-20T18:07:55;97632.47;;;-2.40;100.00
59767;BME280;46248;58.364;25.582;2023-02-20T18:11:17;97626.94;;;-2.50;100.00
59767;BME280;46248;58.364;25.582;2023-02-20T18:14:40;97636.00;;;-2.43;100.00